Rowhedge, United Kingdom
Current Conditions -  °F | °C
As of 2:50 PM on Wednesday 26 Nov 2014 (Local Time) from EGUW Reporting Station
Moderate Fog Moderate Fog  
Wind Chill: 46°   Ceiling: 100
Heat Index: 48°   Visibility: 0.5mi
Dew Point: 48°   Wind: 5mph
Humidity: 100%   Direction: 130°SE
Pressure: 29.8"   Gusts: NA
Location:  51.86°N, 0.95°E
Report Text: EGUW 261450Z 13004KT 0800 FG OVC001 09/09 Q1009 RED TEMPO 2000 BR BKN002 AMB
Loading
Personal Weather Stations






























Interactive Weather Map New forecast layout! Learn more

10-Day Weather Forecast

Advertisements
Track Severe Weather on mobile